createdAt,value
2023-03-06T00:00:34.247Z,94230.50
2023-03-06T00:03:01.079Z,94223.66
2023-03-06T00:05:28.076Z,94225.97
2023-03-06T00:07:54.871Z,94222.31
2023-03-06T00:10:24.811Z,94226.09
2023-03-06T00:12:56.659Z,94218.41
2023-03-06T00:15:24.510Z,94216.06
2023-03-06T00:17:51.175Z,94213.09
2023-03-06T00:20:18.907Z,94212.47
2023-03-06T00:22:45.678Z,94208.44
2023-03-06T00:25:15.216Z,94207.22
2023-03-06T00:27:42.354Z,94204.91
2023-03-06T00:30:12.846Z,94198.44
2023-03-06T00:32:43.058Z,94198.72
2023-03-06T00:35:10.889Z,94194.06
2023-03-06T00:37:38.059Z,94195.59
2023-03-06T00:40:06.670Z,94192.34
2023-03-06T00:42:33.338Z,94188.69
2023-03-06T00:45:00.014Z,94182.78
2023-03-06T00:47:26.773Z,94185.44
2023-03-06T00:49:53.425Z,94183.50
2023-03-06T00:52:20.132Z,94179.66
2023-03-06T00:54:46.748Z,94177.03
2023-03-06T00:57:13.569Z,94167.47
2023-03-06T00:59:40.775Z,94160.69
2023-03-06T01:02:08.068Z,94154.69
2023-03-06T01:04:34.788Z,94149.50
2023-03-06T01:07:01.504Z,94140.75
2023-03-06T01:09:29.273Z,94148.88
2023-03-06T01:11:56.142Z,94145.25
2023-03-06T01:14:23.037Z,94138.09
2023-03-06T01:16:49.813Z,94132.50
2023-03-06T01:19:17.943Z,94127.50
2023-03-06T01:21:45.432Z,94119.97
2023-03-06T01:24:12.391Z,94115.84
2023-03-06T01:26:38.952Z,94115.97
2023-03-06T01:29:06.369Z,94112.19
2023-03-06T01:31:33.273Z,94110.88
2023-03-06T01:33:59.989Z,94108.13
2023-03-06T01:36:26.721Z,94090.84
2023-03-06T01:38:53.650Z,94088.56
2023-03-06T01:41:21.555Z,94086.94
2023-03-06T01:43:48.684Z,94080.72
2023-03-06T01:46:21.277Z,94069.72
2023-03-06T01:48:50.318Z,94064.88
2023-03-06T01:51:17.144Z,94055.16
2023-03-06T01:53:46.154Z,94054.69
2023-03-06T01:56:14.750Z,94048.66
2023-03-06T01:58:43.945Z,94055.16
2023-03-06T02:01:12.914Z,94044.09
2023-03-06T02:03:41.936Z,94037.22
2023-03-06T02:06:09.476Z,94037.75
2023-03-06T02:08:36.276Z,94038.16
2023-03-06T02:11:08.997Z,94039.28
2023-03-06T02:13:37.136Z,94032.44
2023-03-06T02:16:03.917Z,94038.44
2023-03-06T02:18:30.769Z,94039.34
2023-03-06T02:21:00.566Z,94035.09
2023-03-06T02:23:27.171Z,94028.03
2023-03-06T02:25:56.430Z,94022.44
2023-03-06T02:28:24.908Z,94022.38
2023-03-06T02:30:53.833Z,94023.16
2023-03-06T02:33:26.853Z,94019.84
2023-03-06T02:36:00.385Z,94026.19
2023-03-06T02:38:34.257Z,94013.31
2023-03-06T02:41:05.204Z,94007.13
2023-03-06T02:43:35.516Z,94007.94
2023-03-06T02:46:02.720Z,94006.72
2023-03-06T02:48:29.517Z,94008.31
2023-03-06T02:50:56.265Z,94005.66
2023-03-06T02:53:23.766Z,93996.63
2023-03-06T02:55:51.300Z,93991.34
2023-03-06T02:58:19.696Z,93994.59
2023-03-06T03:00:48.477Z,93990.75
2023-03-06T03:03:15.211Z,93983.88
2023-03-06T03:05:41.941Z,93979.63
2023-03-06T03:08:14.609Z,93978.91
2023-03-06T03:10:41.306Z,93985.56
2023-03-06T03:13:08.168Z,93975.69
2023-03-06T03:15:35.569Z,93972.44
2023-03-06T03:18:03.144Z,93973.91
2023-03-06T03:20:29.866Z,93973.75
2023-03-06T03:22:56.548Z,93979.59
2023-03-06T03:25:25.894Z,93981.59
2023-03-06T03:27:55.225Z,93982.56
2023-03-06T03:30:22.658Z,93979.34
2023-03-06T03:32:49.913Z,93975.44
2023-03-06T03:35:16.961Z,93975.13
2023-03-06T03:37:43.812Z,93972.00
2023-03-06T03:40:11.587Z,93968.34
2023-03-06T03:42:38.496Z,93966.09
2023-03-06T03:45:06.704Z,93974.00
2023-03-06T03:47:33.441Z,93972.19
2023-03-06T03:50:00.457Z,93975.41
2023-03-06T03:52:27.226Z,93967.53
2023-03-06T03:54:54.262Z,93966.72
2023-03-06T03:57:21.058Z,93960.53
2023-03-06T03:59:51.032Z,93957.19
2023-03-06T04:02:29.710Z,93960.22
2023-03-06T04:05:16.592Z,93950.03
2023-03-06T04:07:43.711Z,93944.97
2023-03-06T04:10:12.221Z,93939.44
2023-03-06T04:12:39.041Z,93942.78
2023-03-06T04:15:07.881Z,93938.88
2023-03-06T04:17:35.420Z,93934.72
2023-03-06T04:20:04.991Z,93937.56
2023-03-06T04:22:32.562Z,93935.03
2023-03-06T04:25:00.245Z,93936.88
2023-03-06T04:27:27.034Z,93932.03
2023-03-06T04:29:56.197Z,93937.56
2023-03-06T04:32:24.095Z,93936.88
2023-03-06T04:34:51.180Z,93938.94
2023-03-06T04:37:23.811Z,93937.53
2023-03-06T04:39:51.644Z,93938.13
2023-03-06T04:42:18.643Z,93935.38
2023-03-06T04:44:45.781Z,93932.19
2023-03-06T04:47:12.822Z,93935.53
2023-03-06T04:49:39.496Z,93933.09
2023-03-06T04:52:06.893Z,93931.66
2023-03-06T04:54:33.711Z,93928.03
2023-03-06T04:57:00.467Z,93925.41
2023-03-06T04:59:27.326Z,93928.19
2023-03-06T05:01:55.283Z,93927.28
2023-03-06T05:04:21.957Z,93919.88
2023-03-06T05:06:49.446Z,93927.13
2023-03-06T05:09:16.135Z,93911.69
2023-03-06T05:11:42.847Z,93920.69
2023-03-06T05:14:09.525Z,93911.38
2023-03-06T05:16:36.473Z,93918.06
2023-03-06T05:19:03.297Z,93919.56
2023-03-06T05:21:30.015Z,93914.38
2023-03-06T05:23:56.869Z,93910.25
2023-03-06T05:26:23.520Z,93908.72
2023-03-06T05:28:50.226Z,93912.41
2023-03-06T05:31:17.213Z,93912.53
2023-03-06T05:33:44.051Z,93909.97
2023-03-06T05:36:11.081Z,93915.63
2023-03-06T05:38:37.723Z,93919.81
2023-03-06T05:41:04.595Z,93912.97
2023-03-06T05:43:31.130Z,93914.63
2023-03-06T05:46:05.949Z,93914.06
2023-03-06T05:48:34.108Z,93913.25
2023-03-06T05:51:02.123Z,93913.03
2023-03-06T05:53:29.632Z,93912.00
2023-03-06T05:55:58.454Z,93914.41
2023-03-06T05:58:25.653Z,93910.50
2023-03-06T06:00:52.582Z,93905.91
2023-03-06T06:03:19.754Z,93906.81
2023-03-06T06:05:46.527Z,93911.66
2023-03-06T06:08:13.182Z,93910.97
2023-03-06T06:10:39.940Z,93913.06
2023-03-06T06:13:06.677Z,93926.31
2023-03-06T06:15:33.696Z,93928.19
2023-03-06T06:18:00.729Z,93921.78
2023-03-06T06:20:28.477Z,93923.19
2023-03-06T06:22:55.491Z,93921.09
2023-03-06T06:25:22.215Z,93925.03
2023-03-06T06:27:48.948Z,93925.34
2023-03-06T06:30:15.933Z,93926.84
2023-03-06T06:32:42.776Z,93938.00
2023-03-06T06:35:09.798Z,93930.75
2023-03-06T06:37:36.463Z,93927.19
2023-03-06T06:40:04.596Z,93925.78
2023-03-06T06:42:38.091Z,93930.78
2023-03-06T06:45:07.263Z,93922.59
2023-03-06T06:47:34.291Z,93929.97
2023-03-06T06:50:01.090Z,93927.75
2023-03-06T06:52:27.880Z,93929.41
2023-03-06T06:54:54.930Z,93933.66
2023-03-06T06:57:22.154Z,93933.91
2023-03-06T06:59:49.703Z,93939.22
2023-03-06T07:02:17.535Z,93935.03
2023-03-06T07:05:02.002Z,93935.63
2023-03-06T07:07:30.150Z,93942.31
2023-03-06T07:09:56.863Z,93934.91
2023-03-06T07:12:23.569Z,93942.19
2023-03-06T07:14:50.107Z,93941.38
2023-03-06T07:17:16.746Z,93938.88
2023-03-06T07:19:43.390Z,93935.16
2023-03-06T07:22:10.053Z,93929.50
2023-03-06T07:24:36.730Z,93927.44
2023-03-06T07:27:03.421Z,93930.00
2023-03-06T07:29:32.499Z,93929.75
2023-03-06T07:31:59.190Z,93930.78
2023-03-06T07:34:25.853Z,93938.16
2023-03-06T07:36:52.652Z,93927.19
2023-03-06T07:39:19.259Z,93936.78
2023-03-06T07:41:45.778Z,93944.63
2023-03-06T07:44:12.658Z,93941.50
2023-03-06T07:46:39.246Z,93943.81
2023-03-06T07:49:06.020Z,93949.22
2023-03-06T07:51:32.987Z,93947.94
2023-03-06T07:53:59.574Z,93932.09
2023-03-06T07:56:26.264Z,93946.09
2023-03-06T07:58:52.899Z,93943.75
2023-03-06T08:01:23.530Z,93942.88
2023-03-06T08:03:50.645Z,93941.31
2023-03-06T08:06:20.395Z,93946.63
2023-03-06T08:08:48.596Z,93941.09
2023-03-06T08:11:16.945Z,93944.78
2023-03-06T08:13:43.924Z,93942.00
2023-03-06T08:16:10.945Z,93945.03
2023-03-06T08:18:39.800Z,93947.75
2023-03-06T08:21:10.944Z,93950.28
2023-03-06T08:23:37.827Z,93951.22
2023-03-06T08:26:16.056Z,93951.09
2023-03-06T08:28:43.544Z,93949.13
2023-03-06T08:31:20.550Z,93951.31
2023-03-06T08:33:47.798Z,93960.19
2023-03-06T08:36:14.348Z,93961.09
2023-03-06T08:38:41.121Z,93969.63
2023-03-06T08:41:07.879Z,93968.94
2023-03-06T08:43:35.803Z,93969.34
2023-03-06T08:46:03.130Z,93969.00
2023-03-06T08:48:30.209Z,93960.88
2023-03-06T08:50:56.792Z,93973.03
2023-03-06T08:53:40.474Z,93968.34
2023-03-06T08:56:19.310Z,93968.78
2023-03-06T08:58:46.781Z,93974.88
2023-03-06T09:01:16.447Z,93975.84
2023-03-06T09:03:43.613Z,93969.78
2023-03-06T09:06:10.398Z,93975.22
2023-03-06T09:08:37.036Z,93973.09
2023-03-06T09:11:04.181Z,93963.25
2023-03-06T09:13:31.159Z,93965.94
2023-03-06T09:15:57.711Z,93972.34
2023-03-06T09:18:24.696Z,93970.78
2023-03-06T09:20:52.181Z,93968.38
2023-03-06T09:23:18.728Z,93971.28
2023-03-06T09:25:46.203Z,93972.66
2023-03-06T09:28:13.014Z,93972.59
2023-03-06T09:30:40.895Z,93974.81
2023-03-06T09:33:07.947Z,93965.19
2023-03-06T09:35:34.978Z,93967.03
2023-03-06T09:38:01.615Z,93972.41
2023-03-06T09:40:55.296Z,93963.91
2023-03-06T09:43:30.130Z,93966.50
2023-03-06T09:45:58.108Z,93975.59
2023-03-06T09:49:00.050Z,93967.41
2023-03-06T09:51:48.480Z,93969.16
2023-03-06T09:54:16.316Z,93961.34
2023-03-06T09:56:50.472Z,93965.38
2023-03-06T09:59:23.895Z,93970.88
2023-03-06T10:02:01.629Z,93970.31
2023-03-06T10:04:37.970Z,93974.63
2023-03-06T10:07:12.288Z,93971.06
2023-03-06T10:09:48.106Z,93977.38
2023-03-06T10:12:24.798Z,93973.22
2023-03-06T10:15:14.764Z,93971.69
2023-03-06T10:17:43.244Z,93969.16
2023-03-06T10:20:28.383Z,93970.09
2023-03-06T10:23:07.264Z,93972.75
2023-03-06T10:25:42.786Z,93972.25
2023-03-06T10:28:19.439Z,93978.97
2023-03-06T10:30:57.629Z,93965.00
2023-03-06T10:33:42.264Z,93970.13
2023-03-06T10:36:15.043Z,93970.25
2023-03-06T10:38:42.646Z,93968.41
2023-03-06T10:41:11.941Z,93967.19
2023-03-06T10:43:41.630Z,93968.25
2023-03-06T10:46:10.882Z,93962.78
2023-03-06T10:48:41.688Z,93968.28
2023-03-06T10:51:18.469Z,93955.66
2023-03-06T10:53:53.417Z,93961.97
2023-03-06T10:56:49.638Z,93959.41
2023-03-06T10:59:18.835Z,93952.53
2023-03-06T11:01:57.383Z,93936.41
2023-03-06T11:04:33.333Z,93950.50
2023-03-06T11:07:12.235Z,93940.47
2023-03-06T11:09:39.064Z,93935.53
2023-03-06T11:12:14.933Z,93946.84
2023-03-06T11:14:41.940Z,93947.81
2023-03-06T11:17:27.536Z,93942.75
2023-03-06T11:20:14.413Z,93948.44
2023-03-06T11:22:41.882Z,93957.69
2023-03-06T11:25:20.938Z,93956.47
2023-03-06T11:28:16.314Z,93958.47
2023-03-06T11:30:47.388Z,93957.59
2023-03-06T11:33:25.511Z,93954.13
2023-03-06T11:36:03.493Z,93953.94
2023-03-06T11:38:38.834Z,93950.22
2023-03-06T11:41:13.914Z,93952.22
2023-03-06T11:43:50.931Z,93956.25
2023-03-06T11:46:24.946Z,93951.81
2023-03-06T11:49:01.254Z,93951.72
2023-03-06T11:51:33.292Z,93944.44
2023-03-06T11:54:00.516Z,93943.50
2023-03-06T11:56:56.290Z,93937.06
2023-03-06T11:59:56.031Z,93943.53
2023-03-06T12:02:57.884Z,93934.69
2023-03-06T12:05:37.904Z,93931.47
2023-03-06T12:08:17.661Z,93932.69
2023-03-06T12:10:52.687Z,93925.19
2023-03-06T12:13:19.369Z,93930.97
2023-03-06T12:15:45.864Z,93933.38
2023-03-06T12:18:18.318Z,93926.94
2023-03-06T12:20:53.852Z,93928.94
2023-03-06T12:23:42.467Z,93934.84
2023-03-06T12:26:20.947Z,93923.31
2023-03-06T12:28:53.338Z,93920.75
2023-03-06T12:31:26.452Z,93913.91
2023-03-06T12:34:26.068Z,93912.03
2023-03-06T12:37:20.277Z,93912.56
2023-03-06T12:40:09.905Z,93907.19
2023-03-06T12:42:59.932Z,93904.50
2023-03-06T12:45:34.291Z,93904.09
2023-03-06T12:48:02.095Z,93910.53
2023-03-06T12:50:32.359Z,93907.19
2023-03-06T12:53:04.322Z,93909.75
2023-03-06T12:55:45.222Z,93906.41
2023-03-06T12:58:30.233Z,93902.50
2023-03-06T13:01:04.333Z,93899.69
2023-03-06T13:03:41.335Z,93904.25
2023-03-06T13:06:32.401Z,93903.59
2023-03-06T13:09:37.352Z,93900.34
2023-03-06T13:12:20.043Z,93910.56
2023-03-06T13:14:54.787Z,93905.47
2023-03-06T13:17:37.880Z,93906.13
2023-03-06T13:20:13.778Z,93908.97
2023-03-06T13:22:45.164Z,93911.38
2023-03-06T13:25:21.171Z,93907.06
2023-03-06T13:27:53.832Z,93906.41
2023-03-06T13:30:27.965Z,93900.63
2023-03-06T13:32:55.499Z,93906.94
2023-03-06T13:35:34.662Z,93910.69
2023-03-06T13:38:01.545Z,93900.91
2023-03-06T13:40:33.883Z,93900.75
2023-03-06T13:43:09.548Z,93900.75
2023-03-06T13:45:36.106Z,93899.53
2023-03-06T13:48:30.386Z,93903.00
2023-03-06T13:50:50.978Z,93900.44
2023-03-06T13:53:35.590Z,93896.56
2023-03-06T13:56:17.012Z,93890.09
2023-03-06T13:59:47.146Z,93885.94
2023-03-06T14:02:23.488Z,93888.19
2023-03-06T14:04:58.657Z,93895.31
2023-03-06T14:07:26.698Z,93890.75
2023-03-06T14:10:14.971Z,93886.72
2023-03-06T14:12:54.358Z,93889.16
2023-03-06T14:15:25.969Z,93884.75
2023-03-06T14:18:06.947Z,93885.16
2023-03-06T14:20:42.404Z,93882.06
2023-03-06T14:23:21.962Z,93880.06
2023-03-06T14:25:54.808Z,93882.78
2023-03-06T14:28:30.313Z,93874.84
2023-03-06T14:30:58.515Z,93876.03
2023-03-06T14:34:01.629Z,93877.66
2023-03-06T14:36:34.391Z,93880.75
2023-03-06T14:39:23.061Z,93876.84
2023-03-06T14:41:49.627Z,93882.09
2023-03-06T14:44:23.291Z,93877.38
2023-03-06T14:46:52.523Z,93881.56
2023-03-06T14:49:21.248Z,93876.84
2023-03-06T14:51:56.059Z,93879.28
2023-03-06T14:54:29.822Z,93875.81
2023-03-06T14:57:02.725Z,93881.97
2023-03-06T14:59:34.048Z,93873.38
2023-03-06T15:02:05.324Z,93875.81
2023-03-06T15:04:41.995Z,93881.97
2023-03-06T15:07:16.237Z,93876.59
2023-03-06T15:09:51.359Z,93876.34
2023-03-06T15:12:21.200Z,93879.56
2023-03-06T15:14:59.740Z,93875.91
2023-03-06T15:17:42.940Z,93883.56
2023-03-06T15:20:49.233Z,93875.38
2023-03-06T15:23:26.480Z,93882.22
2023-03-06T15:25:56.448Z,93879.94
2023-03-06T15:28:27.837Z,93877.56
2023-03-06T15:31:02.982Z,93885.06
2023-03-06T15:33:29.898Z,93882.22
2023-03-06T15:36:02.351Z,93882.38
2023-03-06T15:38:36.488Z,93876.34
2023-03-06T15:41:04.983Z,93871.63
2023-03-06T15:43:39.443Z,93872.16
2023-03-06T15:46:07.537Z,93877.25
2023-03-06T15:48:35.336Z,93878.06
2023-03-06T15:51:03.098Z,93875.53
2023-03-06T15:53:29.703Z,93875.16
2023-03-06T15:55:58.389Z,93876.59
2023-03-06T15:58:30.483Z,93879.56
2023-03-06T16:00:57.144Z,93881.84
2023-03-06T16:03:24.008Z,93884.38
2023-03-06T16:05:50.585Z,93886.56
2023-03-06T16:08:17.342Z,93885.59
2023-03-06T16:10:45.656Z,93884.00
2023-03-06T16:13:23.256Z,93884.25
2023-03-06T16:15:50.628Z,93880.34
2023-03-06T16:18:18.582Z,93882.63
2023-03-06T16:20:45.374Z,93892.28
2023-03-06T16:23:12.136Z,93882.28
2023-03-06T16:25:41.277Z,93883.75
2023-03-06T16:28:16.428Z,93890.75
2023-03-06T16:30:44.521Z,93887.34
2023-03-06T16:33:11.912Z,93890.00
2023-03-06T16:35:38.717Z,93892.94
2023-03-06T16:38:05.415Z,93888.41
2023-03-06T16:40:37.640Z,93888.53
2023-03-06T16:43:05.134Z,93890.63
2023-03-06T16:45:39.147Z,93884.84
2023-03-06T16:48:06.666Z,93889.06
2023-03-06T16:50:38.198Z,93886.38
2023-03-06T16:53:05.619Z,93881.34
2023-03-06T16:55:32.384Z,93886.84
2023-03-06T16:57:59.086Z,93893.13
2023-03-06T17:00:31.149Z,93883.84
2023-03-06T17:02:58.131Z,93885.94
2023-03-06T17:05:25.049Z,93886.84
2023-03-06T17:07:51.692Z,93886.56
2023-03-06T17:10:22.098Z,93895.38
2023-03-06T17:12:48.919Z,93885.69
2023-03-06T17:15:15.813Z,93886.72
2023-03-06T17:17:42.671Z,93882.75
2023-03-06T17:20:14.373Z,93885.94
2023-03-06T17:22:41.631Z,93887.22
2023-03-06T17:25:09.510Z,93894.28
2023-03-06T17:27:36.953Z,93892.63
2023-03-06T17:30:04.955Z,93898.09
2023-03-06T17:32:32.866Z,93900.53
2023-03-06T17:34:59.859Z,93905.88
2023-03-06T17:37:26.546Z,93908.91
2023-03-06T17:39:53.280Z,93908.91
2023-03-06T17:42:20.185Z,93906.34
2023-03-06T17:44:46.797Z,93919.75
2023-03-06T17:47:13.365Z,93909.09
2023-03-06T17:49:39.962Z,93916.78
2023-03-06T17:52:06.945Z,93910.81
2023-03-06T17:54:33.693Z,93918.25
2023-03-06T17:57:03.249Z,93921.56
2023-03-06T17:59:30.995Z,93917.88
2023-03-06T18:02:00.781Z,93916.41
2023-03-06T18:04:31.150Z,93923.63
2023-03-06T18:06:58.312Z,93924.66
2023-03-06T18:09:25.109Z,93922.63
2023-03-06T18:11:51.594Z,93926.69
2023-03-06T18:14:18.429Z,93926.03
2023-03-06T18:16:46.664Z,93928.28
2023-03-06T18:19:13.580Z,93924.75
2023-03-06T18:21:40.122Z,93931.19
2023-03-06T18:24:07.549Z,93928.13
2023-03-06T18:26:34.405Z,93928.13
2023-03-06T18:29:04.359Z,93925.28
2023-03-06T18:31:34.495Z,93932.16
2023-03-06T18:34:07.306Z,93931.91
2023-03-06T18:36:34.811Z,93927.44
2023-03-06T18:39:03.753Z,93928.88
2023-03-06T18:41:31.378Z,93934.44
2023-03-06T18:44:00.526Z,93935.00
2023-03-06T18:46:36.188Z,93935.00
2023-03-06T18:49:04.003Z,93936.84
2023-03-06T18:51:30.766Z,93932.78
2023-03-06T18:53:58.652Z,93937.53
2023-03-06T18:56:25.524Z,93929.00
2023-03-06T18:58:52.727Z,93930.31
2023-03-06T19:01:20.677Z,93927.53
2023-03-06T19:03:47.584Z,93930.50
2023-03-06T19:06:16.921Z,93935.53
2023-03-06T19:08:43.587Z,93938.06
2023-03-06T19:11:15.523Z,93934.53
2023-03-06T19:13:42.523Z,93937.63
2023-03-06T19:16:10.468Z,93931.84
2023-03-06T19:18:38.779Z,93923.47
2023-03-06T19:21:13.260Z,93928.47
2023-03-06T19:23:40.332Z,93930.25
2023-03-06T19:26:07.567Z,93936.88
2023-03-06T19:28:36.601Z,93927.31
2023-03-06T19:31:21.286Z,93938.81
2023-03-06T19:33:49.910Z,93935.44
2023-03-06T19:36:17.485Z,93936.22
2023-03-06T19:38:44.212Z,93933.97
2023-03-06T19:41:13.595Z,93932.59
2023-03-06T19:43:41.227Z,93939.81
2023-03-06T19:46:14.204Z,93936.25
2023-03-06T19:48:42.395Z,93942.97
2023-03-06T19:51:09.766Z,93938.44
2023-03-06T19:53:37.769Z,93938.50
2023-03-06T19:56:08.316Z,93951.09
2023-03-06T19:58:35.590Z,93950.22
2023-03-06T20:01:14.217Z,93952.03
2023-03-06T20:03:41.769Z,93952.75
2023-03-06T20:06:14.109Z,93940.09
2023-03-06T20:08:42.049Z,93942.47
2023-03-06T20:11:20.170Z,93940.97
2023-03-06T20:13:47.806Z,93948.00
2023-03-06T20:16:15.613Z,93947.56
2023-03-06T20:18:42.546Z,93959.34
2023-03-06T20:21:09.479Z,93957.19
2023-03-06T20:23:36.764Z,93957.63
2023-03-06T20:26:06.033Z,93959.06
2023-03-06T20:28:33.405Z,93956.94
2023-03-06T20:31:06.509Z,93960.78
2023-03-06T20:33:33.345Z,93958.72
2023-03-06T20:36:00.162Z,93953.72
2023-03-06T20:38:26.863Z,93955.75
2023-03-06T20:40:57.773Z,93956.53
2023-03-06T20:43:24.391Z,93952.34
2023-03-06T20:46:03.341Z,93954.75
2023-03-06T20:48:30.092Z,93950.66
2023-03-06T20:51:09.147Z,93952.41
2023-03-06T20:53:36.351Z,93951.53
2023-03-06T20:56:03.046Z,93952.69
2023-03-06T20:58:31.846Z,93955.38
2023-03-06T21:00:59.903Z,93949.84
2023-03-06T21:03:27.775Z,93937.75
2023-03-06T21:05:54.304Z,93942.47
2023-03-06T21:08:21.385Z,93944.22
2023-03-06T21:10:48.137Z,93935.69
2023-03-06T21:13:15.692Z,93943.72
2023-03-06T21:15:43.275Z,93937.75
2023-03-06T21:18:11.304Z,93938.13
2023-03-06T21:20:39.429Z,93938.06
2023-03-06T21:23:06.993Z,93932.53
2023-03-06T21:25:34.156Z,93939.19
2023-03-06T21:28:01.060Z,93942.09
2023-03-06T21:30:29.330Z,93937.63
2023-03-06T21:32:56.481Z,93936.94
2023-03-06T21:35:23.028Z,93937.69
2023-03-06T21:37:49.763Z,93943.47
2023-03-06T21:40:16.845Z,93934.28
2023-03-06T21:42:43.534Z,93932.91
2023-03-06T21:45:10.491Z,93937.56
2023-03-06T21:47:38.927Z,93936.59
2023-03-06T21:50:12.133Z,93929.72
2023-03-06T21:52:38.847Z,93933.91
2023-03-06T21:55:06.493Z,93926.41
2023-03-06T21:57:33.267Z,93931.50
2023-03-06T21:59:59.966Z,93932.91
2023-03-06T22:02:26.534Z,93933.09
2023-03-06T22:04:53.491Z,93923.69
2023-03-06T22:07:20.722Z,93919.88
2023-03-06T22:09:47.595Z,93919.63
2023-03-06T22:12:14.708Z,93909.47
2023-03-06T22:14:43.560Z,93910.78
2023-03-06T22:17:10.118Z,93908.91
2023-03-06T22:19:36.821Z,93910.41
2023-03-06T22:22:04.272Z,93903.97
2023-03-06T22:24:31.930Z,93893.09
2023-03-06T22:26:59.236Z,93901.41
2023-03-06T22:29:26.036Z,93904.19
2023-03-06T22:31:53.105Z,93895.09
2023-03-06T22:34:19.738Z,93900.41
2023-03-06T22:36:46.682Z,93893.41
2023-03-06T22:39:13.767Z,93898.75
2023-03-06T22:41:40.699Z,93895.09
2023-03-06T22:44:07.318Z,93887.34
2023-03-06T22:46:33.976Z,93892.22
2023-03-06T22:49:01.537Z,93874.81
2023-03-06T22:51:29.359Z,93879.09
2023-03-06T22:53:56.023Z,93871.00
2023-03-06T22:56:23.130Z,93868.16
2023-03-06T22:58:49.915Z,93868.59
2023-03-06T23:01:21.730Z,93868.03
2023-03-06T23:03:53.929Z,93872.19
2023-03-06T23:06:21.834Z,93873.44
2023-03-06T23:08:51.576Z,93864.53
2023-03-06T23:11:19.752Z,93866.50
2023-03-06T23:14:05.975Z,93866.88
2023-03-06T23:16:51.281Z,93865.63
2023-03-06T23:19:36.647Z,93867.75
2023-03-06T23:22:21.891Z,93862.59
2023-03-06T23:25:07.643Z,93867.34
2023-03-06T23:27:35.566Z,93864.75
2023-03-06T23:30:03.465Z,93861.03
2023-03-06T23:32:34.209Z,93863.50
2023-03-06T23:35:02.075Z,93866.13
2023-03-06T23:37:28.681Z,93860.75
2023-03-06T23:39:55.426Z,93858.56
2023-03-06T23:42:22.869Z,93868.09
2023-03-06T23:44:49.471Z,93862.53
2023-03-06T23:47:17.201Z,93865.56
2023-03-06T23:49:43.829Z,93863.97
2023-03-06T23:52:10.602Z,93868.22
2023-03-06T23:54:37.182Z,93864.88
2023-03-06T23:57:03.999Z,93861.78
2023-03-06T23:59:30.769Z,93865.13
